Time;durP1;ratioP1;P1;durP2;ratioP2;P2;SDS_P1;SDS_P2;PMS_P1;PMS_P2;Temp;Humidity;BMP_temperature;BMP_pressure;BME280_temperature;BME280_humidity;BME280_pressure;Samples;Min_cycle;Max_cycle;Signal;HPM_P1;HPM_P2
2022/06/02 00:01:21;;;;;;;13.02;11.63;;;;;;;;;;5069167;28;20044;-31
2022/06/02 00:03:52;;;;;;;12.25;10.45;;;;;;;;;;5045663;28;20048;-30
2022/06/02 00:06:28;;;;;;;12.55;11.25;;;;;;;;;;5080096;28;20047;-30
2022/06/02 00:09:10;;;;;;;12.60;10.80;;;;;;;;;;5067903;28;20048;-30
2022/06/02 00:11:42;;;;;;;11.90;10.70;;;;;;;;;;5072720;28;20516;-30
2022/06/02 00:14:27;;;;;;;11.32;10.20;;;;;;;;;;5083650;28;20597;-31
2022/06/02 00:16:58;;;;;;;13.93;11.35;;;;;;;;;;5067189;28;20044;-30
2022/06/02 00:19:25;;;;;;;12.73;11.43;;;;;;;;;;5076858;28;20036;-31
2022/06/02 00:21:58;;;;;;;13.40;11.75;;;;;;;;;;5073797;28;20041;-31
2022/06/02 00:24:51;;;;;;;14.38;10.15;;;;;;;;;;5079812;28;20036;-32
2022/06/02 00:27:23;;;;;;;11.93;10.50;;;;;;;;;;5077674;28;20084;-30
2022/06/02 00:29:49;;;;;;;13.73;11.68;;;;;;;;;;5058020;28;20047;-29
2022/06/02 00:32:50;;;;;;;12.13;10.88;;;;;;;;;;5077953;28;20050;-30
2022/06/02 00:35:21;;;;;;;12.55;11.25;;;;;;;;;;5031738;28;20086;-29
2022/06/02 00:37:53;;;;;;;11.70;10.45;;;;;;;;;;5065933;28;20364;-30
2022/06/02 00:40:20;;;;;;;12.73;11.43;;;;;;;;;;5066880;28;20086;-30
2022/06/02 00:43:05;;;;;;;13.43;10.40;;;;;;;;;;5073726;28;20040;-31
2022/06/02 00:45:32;;;;;;;12.40;10.75;;;;;;;;;;5065349;28;20107;-30
2022/06/02 00:47:58;;;;;;;11.48;10.25;;;;;;;;;;5075453;28;20036;-32
2022/06/02 00:50:42;;;;;;;11.55;10.35;;;;;;;;;;5069820;28;20402;-31
2022/06/02 00:53:08;;;;;;;11.55;10.35;;;;;;;;;;5079451;28;20041;-30
2022/06/02 00:58:44;;;;;;;11.02;9.93;;;;;;;;;;5069695;28;20041;-30
2022/06/02 01:01:14;;;;;;;12.82;10.88;;;;;;;;;;5071834;28;20104;-31
2022/06/02 01:03:47;;;;;;;11.30;10.10;;;;;;;;;;5071594;28;20047;-30
2022/06/02 01:06:33;;;;;;;12.68;10.77;;;;;;;;;;5066119;28;20564;-30
2022/06/02 01:09:02;;;;;;;12.23;10.98;;;;;;;;;;5069338;28;20398;-31
2022/06/02 01:11:47;;;;;;;13.30;10.43;;;;;;;;;;5070537;28;20043;-30
2022/06/02 01:14:25;;;;;;;12.35;9.80;;;;;;;;;;5073736;28;20534;-30
2022/06/02 01:17:00;;;;;;;12.70;10.65;;;;;;;;;;5072011;28;20094;-30
2022/06/02 01:19:29;;;;;;;11.48;10.23;;;;;;;;;;5082440;28;20036;-33
2022/06/02 01:22:16;;;;;;;12.45;11.15;;;;;;;;;;5076730;28;20406;-29
2022/06/02 01:24:52;;;;;;;10.45;9.32;;;;;;;;;;5065690;28;20042;-30
2022/06/02 01:27:36;;;;;;;10.93;9.80;;;;;;;;;;5081746;28;20159;-32
2022/06/02 01:30:02;;;;;;;12.70;11.05;;;;;;;;;;5083294;28;20048;-31
2022/06/02 01:32:33;;;;;;;12.32;10.70;;;;;;;;;;5073707;28;20115;-30
2022/06/02 01:35:08;;;;;;;14.57;12.90;;;;;;;;;;5065562;28;20032;-32
2022/06/02 01:37:47;;;;;;;13.45;11.85;;;;;;;;;;5073057;28;20032;-31
2022/06/02 01:40:13;;;;;;;14.07;12.20;;;;;;;;;;5059492;28;20064;-31
2022/06/02 01:42:46;;;;;;;12.48;10.50;;;;;;;;;;5072117;28;20036;-32
2022/06/02 01:45:38;;;;;;;13.05;11.65;;;;;;;;;;5071055;28;20037;-33
2022/06/02 01:48:19;;;;;;;13.55;11.63;;;;;;;;;;5053447;28;20041;-31
2022/06/02 01:51:04;;;;;;;13.23;11.77;;;;;;;;;;5057248;28;20127;-31
2022/06/02 01:53:49;;;;;;;13.65;11.70;;;;;;;;;;5081831;28;20071;-30
2022/06/02 01:56:33;;;;;;;13.38;11.63;;;;;;;;;;5062850;28;20080;-30
2022/06/02 01:59:05;;;;;;;11.73;10.63;;;;;;;;;;5078432;28;20032;-31
2022/06/02 02:01:52;;;;;;;13.60;11.68;;;;;;;;;;5070601;28;20040;-31
2022/06/02 02:04:33;;;;;;;14.43;12.32;;;;;;;;;;5060033;28;20061;-31
2022/06/02 02:07:18;;;;;;;15.98;13.45;;;;;;;;;;5075003;28;20033;-31
2022/06/02 02:09:45;;;;;;;15.07;12.75;;;;;;;;;;5064313;28;20079;-31
2022/06/02 02:12:19;;;;;;;17.40;13.52;;;;;;;;;;5068531;28;20086;-31
2022/06/02 02:14:54;;;;;;;12.60;11.13;;;;;;;;;;5069493;28;20038;-31
2022/06/02 02:17:39;;;;;;;13.05;11.68;;;;;;;;;;5075180;28;20035;-31
2022/06/02 02:20:26;;;;;;;12.20;10.85;;;;;;;;;;5060598;28;20033;-31
2022/06/02 02:22:55;;;;;;;12.63;11.02;;;;;;;;;;5062590;28;20048;-31
2022/06/02 02:25:44;;;;;;;13.65;12.05;;;;;;;;;;5078449;28;20075;-31
2022/06/02 02:28:10;;;;;;;12.90;11.50;;;;;;;;;;5058747;28;20047;-31
2022/06/02 02:30:59;;;;;;;15.45;13.23;;;;;;;;;;5078833;28;20044;-32
2022/06/02 02:33:25;;;;;;;13.65;11.93;;;;;;;;;;5070955;28;20574;-30
2022/06/02 02:35:56;;;;;;;16.08;13.50;;;;;;;;;;5072183;28;20035;-31
2022/06/02 02:38:47;;;;;;;16.73;12.65;;;;;;;;;;5063632;28;20036;-30
2022/06/02 02:41:16;;;;;;;16.83;13.35;;;;;;;;;;5058230;28;20084;-32
2022/06/02 02:43:50;;;;;;;14.77;12.63;;;;;;;;;;5074257;28;20135;-31
2022/06/02 02:46:36;;;;;;;12.13;10.82;;;;;;;;;;5076774;28;20044;-32
2022/06/02 02:49:12;;;;;;;15.43;12.82;;;;;;;;;;5057982;28;20028;-30
2022/06/02 02:51:58;;;;;;;14.32;12.50;;;;;;;;;;5050920;28;20044;-32
2022/06/02 02:54:31;;;;;;;17.52;12.65;;;;;;;;;;5050869;28;20040;-29
2022/06/02 02:57:01;;;;;;;14.60;12.60;;;;;;;;;;5051231;28;20086;-30
2022/06/02 02:59:40;;;;;;;12.88;11.50;;;;;;;;;;5051114;28;20373;-31
2022/06/02 03:02:06;;;;;;;15.73;13.05;;;;;;;;;;5050931;28;20423;-34
2022/06/02 03:04:51;;;;;;;13.35;11.48;;;;;;;;;;5058745;28;20682;-32
2022/06/02 03:07:18;;;;;;;14.48;12.48;;;;;;;;;;5073540;28;20044;-31
2022/06/02 03:09:44;;;;;;;20.45;12.50;;;;;;;;;;5068054;28;20040;-30
2022/06/02 03:12:19;;;;;;;16.27;14.18;;;;;;;;;;5075979;28;20032;-32
2022/06/02 03:15:00;;;;;;;15.00;13.00;;;;;;;;;;5060672;28;20501;-32
2022/06/02 03:17:35;;;;;;;16.67;13.55;;;;;;;;;;5065307;28;20039;-28
2022/06/02 03:20:19;;;;;;;15.93;12.48;;;;;;;;;;5056165;28;20059;-29
2022/06/02 03:23:13;;;;;;;17.38;12.57;;;;;;;;;;5076230;28;20115;-30
2022/06/02 03:25:44;;;;;;;15.45;13.38;;;;;;;;;;5058255;28;20086;-31
2022/06/02 03:28:13;;;;;;;17.13;14.05;;;;;;;;;;5066133;28;20033;-32
2022/06/02 03:30:57;;;;;;;19.13;14.93;;;;;;;;;;5068514;28;20051;-33
2022/06/02 03:33:42;;;;;;;18.75;14.95;;;;;;;;;;5058038;28;20091;-32
2022/06/02 03:36:17;;;;;;;22.80;15.75;;;;;;;;;;5076951;28;20098;-31
2022/06/02 03:38:56;;;;;;;19.25;15.50;;;;;;;;;;5062836;28;20036;-32
2022/06/02 03:41:22;;;;;;;19.92;15.25;;;;;;;;;;5065535;28;20045;-31
2022/06/02 03:43:48;;;;;;;17.45;14.45;;;;;;;;;;5065669;28;20047;-34
2022/06/02 03:46:29;;;;;;;16.42;13.88;;;;;;;;;;5066631;28;20563;-32
2022/06/02 03:48:55;;;;;;;18.35;15.13;;;;;;;;;;5057218;28;20115;-31
2022/06/02 03:51:27;;;;;;;21.42;16.05;;;;;;;;;;5060075;28;20041;-34
2022/06/02 03:54:11;;;;;;;18.30;14.30;;;;;;;;;;5066896;28;20032;-34
2022/06/02 03:56:46;;;;;;;18.05;14.38;;;;;;;;;;5076006;28;20033;-32
2022/06/02 03:59:18;;;;;;;18.85;15.60;;;;;;;;;;5066973;28;20441;-30
2022/06/02 04:01:51;;;;;;;19.98;15.63;;;;;;;;;;5073394;28;20041;-29
2022/06/02 04:04:20;;;;;;;19.15;15.43;;;;;;;;;;5060284;28;20128;-29
2022/06/02 04:06:46;;;;;;;16.45;13.75;;;;;;;;;;5075074;28;20199;-30
2022/06/02 04:09:15;;;;;;;16.48;13.50;;;;;;;;;;5056983;28;20513;-31
2022/06/02 04:14:35;;;;;;;21.88;16.30;;;;;;;;;;5065867;28;20040;-29
2022/06/02 04:17:10;;;;;;;21.90;15.90;;;;;;;;;;5066193;28;20041;-29
2022/06/02 04:23:09;;;;;;;20.20;15.60;;;;;;;;;;5075421;28;20036;-29
2022/06/02 04:25:45;;;;;;;22.20;16.25;;;;;;;;;;5072124;28;20666;-28
2022/06/02 04:28:20;;;;;;;21.30;17.05;;;;;;;;;;5066968;28;20391;-29
2022/06/02 04:31:05;;;;;;;21.70;16.05;;;;;;;;;;5080278;28;20116;-29
2022/06/02 04:33:31;;;;;;;21.33;15.88;;;;;;;;;;5080134;28;20138;-29
2022/06/02 04:36:15;;;;;;;20.40;15.60;;;;;;;;;;5062683;28;20094;-29
2022/06/02 04:38:41;;;;;;;;;;;;;;;;;;5076670;28;20123;-29
2022/06/02 04:41:23;;;;;;;18.70;15.02;;;;;;;;;;5071743;28;20463;-28
2022/06/02 04:44:09;;;;;;;22.85;17.35;;;;;;;;;;5072596;28;20501;-29
2022/06/02 04:46:47;;;;;;;22.20;17.88;;;;;;;;;;5072706;28;20039;-29
2022/06/02 04:49:19;;;;;;;23.48;17.58;;;;;;;;;;5064641;28;20067;-29
2022/06/02 04:51:50;;;;;;;27.80;19.08;;;;;;;;;;5051967;28;20073;-29
2022/06/02 04:54:23;;;;;;;27.50;20.95;;;;;;;;;;5070335;28;20190;-29
2022/06/02 04:56:58;;;;;;;26.00;18.70;;;;;;;;;;5078461;28;20111;-30
2022/06/02 04:59:33;;;;;;;27.33;20.30;;;;;;;;;;5078469;28;20271;-31
2022/06/02 05:02:14;;;;;;;24.50;19.20;;;;;;;;;;5081561;28;20041;-30
2022/06/02 05:04:58;;;;;;;21.30;16.63;;;;;;;;;;5065167;28;20047;-30
2022/06/02 05:07:43;;;;;;;25.42;18.58;;;;;;;;;;5059360;28;20399;-30
2022/06/02 05:10:34;;;;;;;23.35;19.05;;;;;;;;;;5045313;28;20102;-31
2022/06/02 05:13:19;;;;;;;22.70;17.80;;;;;;;;;;5073442;28;20390;-30
2022/06/02 05:16:04;;;;;;;23.50;17.13;;;;;;;;;;5070470;28;20032;-29
2022/06/02 05:18:36;;;;;;;31.55;21.13;;;;;;;;;;5077571;28;20036;-30
2022/06/02 05:21:05;;;;;;;23.52;17.63;;;;;;;;;;5059223;28;20047;-29
2022/06/02 05:23:50;;;;;;;22.50;18.65;;;;;;;;;;5058552;28;20055;-30
2022/06/02 05:26:39;;;;;;;23.20;19.27;;;;;;;;;;5067672;28;20078;-28
2022/06/02 05:29:11;;;;;;;21.58;17.92;;;;;;;;;;5078958;28;20460;-31
2022/06/02 05:31:52;;;;;;;23.77;19.13;;;;;;;;;;5071072;28;20037;-29
2022/06/02 05:34:31;;;;;;;24.52;17.80;;;;;;;;;;5074656;28;20489;-29
2022/06/02 05:37:13;;;;;;;20.27;17.23;;;;;;;;;;5072646;28;20047;-29
2022/06/02 05:39:49;;;;;;;23.73;18.17;;;;;;;;;;5071786;28;20032;-30
2022/06/02 05:42:22;;;;;;;20.25;15.43;;;;;;;;;;5068287;28;20032;-29
2022/06/02 05:44:57;;;;;;;21.17;16.80;;;;;;;;;;5069159;28;20124;-29
2022/06/02 05:47:23;;;;;;;20.15;16.30;;;;;;;;;;5088858;28;20036;-30
2022/06/02 05:49:58;;;;;;;22.38;17.42;;;;;;;;;;5072277;28;20036;-29
2022/06/02 05:52:57;;;;;;;20.23;17.98;;;;;;;;;;5072082;28;20032;-28
2022/06/02 05:55:31;;;;;;;21.05;18.45;;;;;;;;;;5046932;28;20540;-29
2022/06/02 05:58:10;;;;;;;19.58;16.40;;;;;;;;;;5071441;28;20351;-28
2022/06/02 06:00:51;;;;;;;17.05;15.23;;;;;;;;;;5067378;28;20221;-31
2022/06/02 06:03:29;;;;;;;15.55;13.90;;;;;;;;;;5076664;28;20043;-30
2022/06/02 06:06:13;;;;;;;17.15;14.68;;;;;;;;;;5082556;28;20040;-32
2022/06/02 06:08:46;;;;;;;17.30;15.43;;;;;;;;;;5076009;28;20044;-31
2022/06/02 06:11:12;;;;;;;15.10;13.35;;;;;;;;;;5077151;28;20040;-31
2022/06/02 06:13:55;;;;;;;15.50;13.90;;;;;;;;;;5072602;28;20398;-31
2022/06/02 06:16:25;;;;;;;17.65;13.95;;;;;;;;;;5084199;28;20114;-31
2022/06/02 06:19:09;;;;;;;15.32;13.27;;;;;;;;;;5070116;28;20041;-32
2022/06/02 06:21:45;;;;;;;13.35;11.95;;;;;;;;;;5076084;28;20044;-30
2022/06/02 06:24:30;;;;;;;12.95;11.52;;;;;;;;;;5070857;28;20391;-30
2022/06/02 06:26:57;;;;;;;12.68;11.38;;;;;;;;;;5064919;28;20418;-34
2022/06/02 06:29:39;;;;;;;14.18;12.77;;;;;;;;;;5077205;28;20040;-31
2022/06/02 06:32:10;;;;;;;13.50;12.10;;;;;;;;;;5042805;28;20124;-32
2022/06/02 06:34:45;;;;;;;15.05;12.60;;;;;;;;;;5078198;28;20044;-35
2022/06/02 06:37:12;;;;;;;13.15;11.75;;;;;;;;;;5081034;28;20040;-35
2022/06/02 06:39:58;;;;;;;13.32;11.57;;;;;;;;;;5052916;28;20050;-31
2022/06/02 06:42:34;;;;;;;16.13;12.15;;;;;;;;;;5078203;28;20044;-31
2022/06/02 06:45:11;;;;;;;11.98;8.75;;;;;;;;;;5053000;28;20482;-34
2022/06/02 06:47:42;;;;;;;8.80;7.90;;;;;;;;;;5042238;28;20518;-32
2022/06/02 06:50:23;;;;;;;8.95;7.53;;;;;;;;;;5049004;28;20047;-34
2022/06/02 06:53:08;;;;;;;9.20;7.40;;;;;;;;;;5071144;28;20385;-33
2022/06/02 06:55:47;;;;;;;7.20;6.50;;;;;;;;;;5068491;28;20028;-32
2022/06/02 06:58:28;;;;;;;7.70;6.90;;;;;;;;;;5073420;28;20040;-32
2022/06/02 07:00:54;;;;;;;7.05;6.25;;;;;;;;;;5053170;28;20033;-32
2022/06/02 07:03:39;;;;;;;7.65;6.80;;;;;;;;;;5076114;28;20047;-34
2022/06/02 07:06:24;;;;;;;7.63;6.32;;;;;;;;;;5049151;28;20402;-36
2022/06/02 07:08:57;;;;;;;7.53;6.63;;;;;;;;;;5051955;28;20067;-33
2022/06/02 07:14:18;;;;;;;7.10;6.20;;;;;;;;;;5064752;28;20037;-30
2022/06/02 07:16:50;;;;;;;7.53;6.82;;;;;;;;;;5057898;28;20052;-30
2022/06/02 07:19:16;;;;;;;5.38;4.63;;;;;;;;;;5051971;28;20044;-30
2022/06/02 07:22:02;;;;;;;5.88;4.68;;;;;;;;;;5051448;28;20048;-29
2022/06/02 07:24:43;;;;;;;4.80;4.40;;;;;;;;;;5033559;28;20056;-31
2022/06/02 07:27:33;;;;;;;4.85;4.40;;;;;;;;;;5054899;28;20076;-30
2022/06/02 07:30:25;;;;;;;5.38;4.88;;;;;;;;;;5054467;28;20052;-31
2022/06/02 07:33:06;;;;;;;5.25;4.75;;;;;;;;;;5055114;28;20103;-30
2022/06/02 07:35:36;;;;;;;6.50;4.82;;;;;;;;;;5055188;28;20212;-31
2022/06/02 07:38:21;;;;;;;4.82;4.43;;;;;;;;;;5036860;28;20036;-31
2022/06/02 07:40:47;;;;;;;6.97;4.53;;;;;;;;;;5037239;28;20041;-30
2022/06/02 07:43:25;;;;;;;4.25;3.85;;;;;;;;;;5053569;28;20051;-35
2022/06/02 07:45:55;;;;;;;3.85;3.60;;;;;;;;;;5054970;28;20501;-31
2022/06/02 07:48:25;;;;;;;3.78;3.38;;;;;;;;;;5036807;28;20094;-31
2022/06/02 07:51:07;;;;;;;3.92;3.10;;;;;;;;;;5053758;28;20052;-30
2022/06/02 07:53:34;;;;;;;4.38;3.15;;;;;;;;;;5053499;28;20040;-30
2022/06/02 07:56:03;;;;;;;6.20;3.72;;;;;;;;;;5054679;28;20039;-31
2022/06/02 07:58:48;;;;;;;3.78;3.47;;;;;;;;;;5054839;28;20391;-30
2022/06/02 08:01:17;;;;;;;3.80;3.47;;;;;;;;;;5056238;28;20051;-30
2022/06/02 08:03:56;;;;;;;4.20;3.13;;;;;;;;;;5056734;28;20048;-30
2022/06/02 08:06:30;;;;;;;3.60;3.30;;;;;;;;;;5056998;28;20041;-31
2022/06/02 08:09:34;;;;;;;3.70;3.40;;;;;;;;;;5074367;28;20494;-31
2022/06/02 08:12:05;;;;;;;4.20;3.42;;;;;;;;;;5031516;28;20050;-30
2022/06/02 08:14:37;;;;;;;6.20;3.63;;;;;;;;;;5031688;28;20037;-31
2022/06/02 08:17:03;;;;;;;4.10;3.60;;;;;;;;;;5044277;28;20048;-32
2022/06/02 08:19:39;;;;;;;4.75;3.47;;;;;;;;;;5039882;28;20053;-30
2022/06/02 08:22:09;;;;;;;5.85;3.42;;;;;;;;;;5056777;28;20589;-30
2022/06/02 08:24:36;;;;;;;3.53;3.22;;;;;;;;;;5072989;28;20071;-30
2022/06/02 08:27:21;;;;;;;4.32;3.90;;;;;;;;;;5072831;28;20040;-29
2022/06/02 08:29:58;;;;;;;4.00;3.60;;;;;;;;;;5073980;28;20412;-29
2022/06/02 08:32:25;;;;;;;4.38;3.63;;;;;;;;;;5072603;28;20101;-29
2022/06/02 08:35:05;;;;;;;4.35;3.63;;;;;;;;;;5071786;28;20044;-30
2022/06/02 08:37:40;;;;;;;4.78;3.70;;;;;;;;;;5044228;28;20033;-30
2022/06/02 08:40:10;;;;;;;3.58;3.25;;;;;;;;;;5054231;28;20325;-30
2022/06/02 08:42:55;;;;;;;4.25;3.85;;;;;;;;;;5053392;28;20040;-31
2022/06/02 08:45:24;;;;;;;3.65;2.90;;;;;;;;;;5091324;28;20127;-31
2022/06/02 08:48:02;;;;;;;3.05;2.63;;;;;;;;;;5076106;28;20040;-31
2022/06/02 08:51:07;;;;;;;3.20;3.00;;;;;;;;;;5093966;28;20059;-31
2022/06/02 08:53:52;;;;;;;3.47;3.10;;;;;;;;;;5033135;28;20072;-30
2022/06/02 08:56:37;;;;;;;3.45;3.08;;;;;;;;;;5031185;28;20037;-30
2022/06/02 08:59:32;;;;;;;3.53;2.85;;;;;;;;;;5056538;28;20044;-31
2022/06/02 09:02:19;;;;;;;4.57;3.35;;;;;;;;;;5072364;28;20044;-31
2022/06/02 09:04:55;;;;;;;3.30;3.00;;;;;;;;;;5055860;28;20044;-31
2022/06/02 09:07:26;;;;;;;3.13;2.78;;;;;;;;;;5054979;28;20036;-31
2022/06/02 09:09:55;;;;;;;3.22;2.92;;;;;;;;;;5073263;28;20406;-30
2022/06/02 09:12:40;;;;;;;5.82;3.00;;;;;;;;;;5073522;28;20040;-31
2022/06/02 09:15:16;;;;;;;3.38;3.00;;;;;;;;;;5071794;28;20040;-31
2022/06/02 09:17:42;;;;;;;3.50;3.20;;;;;;;;;;5035358;28;20153;-30
2022/06/02 09:20:09;;;;;;;4.55;3.35;;;;;;;;;;5034681;28;20047;-30
2022/06/02 09:22:38;;;;;;;5.30;3.17;;;;;;;;;;5077617;28;20165;-30
2022/06/02 09:25:08;;;;;;;3.17;2.97;;;;;;;;;;5089714;28;20095;-30
2022/06/02 09:27:37;;;;;;;3.45;3.15;;;;;;;;;;5093083;28;20036;-31
2022/06/02 09:30:07;;;;;;;3.20;2.90;;;;;;;;;;5090240;28;20040;-30
2022/06/02 09:32:48;;;;;;;3.88;2.85;;;;;;;;;;5064859;28;20036;-30
2022/06/02 09:35:22;;;;;;;2.97;2.75;;;;;;;;;;5073727;28;20037;-31
2022/06/02 09:37:48;;;;;;;2.92;2.72;;;;;;;;;;5092971;28;20532;-30
2022/06/02 09:40:34;;;;;;;2.67;2.47;;;;;;;;;;5085295;28;20051;-30
2022/06/02 09:43:18;;;;;;;3.10;2.45;;;;;;;;;;5077805;28;20040;-30
2022/06/02 09:46:04;;;;;;;2.55;2.00;;;;;;;;;;5076930;28;20036;-35
2022/06/02 09:48:42;;;;;;;2.20;2.08;;;;;;;;;;5037516;28;20460;-31
2022/06/02 09:51:08;;;;;;;2.55;2.00;;;;;;;;;;5052726;28;20123;-31
2022/06/02 09:53:35;;;;;;;2.28;2.10;;;;;;;;;;5052372;28;20041;-30
2022/06/02 09:56:04;;;;;;;2.33;1.90;;;;;;;;;;5052308;28;20121;-31
2022/06/02 09:58:42;;;;;;;3.33;2.50;;;;;;;;;;5052643;28;20041;-30
2022/06/02 10:01:18;;;;;;;2.35;2.15;;;;;;;;;;5052398;28;20072;-31
2022/06/02 10:03:54;;;;;;;2.75;2.00;;;;;;;;;;5052400;28;20044;-31
2022/06/02 10:06:30;;;;;;;3.47;1.92;;;;;;;;;;5065753;28;20401;-31
2022/06/02 10:09:00;;;;;;;3.38;2.10;;;;;;;;;;5071677;28;20119;-31
2022/06/02 10:11:41;;;;;;;2.10;1.95;;;;;;;;;;5075551;28;20563;-34
2022/06/02 10:14:16;;;;;;;1.70;1.60;;;;;;;;;;5057289;28;20122;-33
2022/06/02 10:16:57;;;;;;;2.97;1.70;;;;;;;;;;5071201;28;20062;-35
2022/06/02 10:19:23;;;;;;;2.33;2.13;;;;;;;;;;5070418;28;20045;-33
2022/06/02 10:21:52;;;;;;;2.15;1.95;;;;;;;;;;5072673;28;20044;-34
2022/06/02 10:24:37;;;;;;;2.35;2.15;;;;;;;;;;5066990;28;20441;-34
2022/06/02 10:27:12;;;;;;;2.28;2.08;;;;;;;;;;5071897;28;20037;-34
2022/06/02 10:29:38;;;;;;;2.17;1.98;;;;;;;;;;5057703;28;20124;-33
2022/06/02 10:32:25;;;;;;;1.95;1.80;;;;;;;;;;5070912;28;20075;-34
2022/06/02 10:35:10;;;;;;;1.90;1.80;;;;;;;;;;5058232;28;20402;-36
2022/06/02 10:37:48;;;;;;;1.85;1.75;;;;;;;;;;5066691;28;20389;-32
2022/06/02 10:40:33;;;;;;;2.38;2.13;;;;;;;;;;5064512;28;20048;-33
2022/06/02 10:43:01;;;;;;;2.08;1.83;;;;;;;;;;5065066;28;20044;-34
2022/06/02 10:45:58;;;;;;;2.20;1.88;;;;;;;;;;5067442;28;20044;-33
2022/06/02 10:48:25;;;;;;;1.90;1.80;;;;;;;;;;5062628;28;20045;-33
2022/06/02 10:51:12;;;;;;;2.08;1.65;;;;;;;;;;5073867;28;20481;-34
2022/06/02 10:53:40;;;;;;;2.28;1.98;;;;;;;;;;5057064;28;20489;-32
2022/06/02 10:56:24;;;;;;;1.60;1.50;;;;;;;;;;5063550;28;20185;-31
2022/06/02 10:58:50;;;;;;;3.50;2.47;;;;;;;;;;5074838;28;20055;-33
2022/06/02 11:01:26;;;;;;;4.03;2.35;;;;;;;;;;5084424;28;20102;-33
2022/06/02 11:04:13;;;;;;;2.85;2.00;;;;;;;;;;5065644;28;20037;-32
2022/06/02 11:06:51;;;;;;;2.15;2.05;;;;;;;;;;5045466;28;20089;-34
2022/06/02 11:09:36;;;;;;;1.60;1.50;;;;;;;;;;5066470;28;20450;-33
2022/06/02 11:12:34;;;;;;;2.47;1.95;;;;;;;;;;5074521;28;20498;-33
2022/06/02 11:15:04;;;;;;;2.45;1.73;;;;;;;;;;5051702;28;20049;-33
2022/06/02 11:17:30;;;;;;;1.88;1.67;;;;;;;;;;5079915;28;20047;-33
2022/06/02 11:20:14;;;;;;;3.53;1.50;;;;;;;;;;5069501;28;20039;-33
2022/06/02 11:22:59;;;;;;;1.40;1.30;;;;;;;;;;5065480;28;20036;-34
2022/06/02 11:25:29;;;;;;;2.30;1.50;;;;;;;;;;5072773;28;20042;-34
2022/06/02 11:28:08;;;;;;;3.75;1.80;;;;;;;;;;5078799;28;20065;-34
2022/06/02 11:30:43;;;;;;;1.88;1.77;;;;;;;;;;5062721;28;20047;-34
2022/06/02 11:33:13;;;;;;;2.00;1.70;;;;;;;;;;5059917;28;20045;-32
2022/06/02 11:35:58;;;;;;;2.15;1.95;;;;;;;;;;5076704;28;20501;-34
2022/06/02 11:38:48;;;;;;;1.77;1.60;;;;;;;;;;5078329;28;20075;-34
2022/06/02 11:41:37;;;;;;;3.50;1.80;;;;;;;;;;5049993;28;20052;-33
2022/06/02 11:44:07;;;;;;;1.98;1.80;;;;;;;;;;5057438;28;20040;-33
2022/06/02 11:46:40;;;;;;;3.28;1.88;;;;;;;;;;5074768;28;20063;-34
2022/06/02 11:49:25;;;;;;;4.38;1.50;;;;;;;;;;5066437;28;20044;-33
2022/06/02 11:52:10;;;;;;;2.08;1.70;;;;;;;;;;5076727;28;20501;-35
2022/06/02 11:54:42;;;;;;;1.88;1.70;;;;;;;;;;5061821;28;20045;-31
2022/06/02 11:57:39;;;;;;;4.35;2.08;;;;;;;;;;5069911;28;20145;-33
2022/06/02 12:00:06;;;;;;;2.40;1.95;;;;;;;;;;5067266;28;20083;-32
2022/06/02 12:02:47;;;;;;;3.13;1.98;;;;;;;;;;5076753;28;20405;-31
2022/06/02 12:05:14;;;;;;;1.98;1.85;;;;;;;;;;5071044;28;20390;-32
2022/06/02 12:07:58;;;;;;;1.98;1.63;;;;;;;;;;5064727;28;20043;-35
2022/06/02 12:10:41;;;;;;;1.90;1.70;;;;;;;;;;5073617;28;20033;-31
2022/06/02 12:13:09;;;;;;;2.70;1.85;;;;;;;;;;5058823;28;20509;-34
2022/06/02 12:16:02;;;;;;;2.40;1.75;;;;;;;;;;5073005;28;20047;-32
2022/06/02 12:18:32;;;;;;;2.85;1.95;;;;;;;;;;5068003;28;20393;-34
2022/06/02 12:21:17;;;;;;;3.22;1.70;;;;;;;;;;5071120;28;20039;-32
2022/06/02 12:24:15;;;;;;;1.90;1.58;;;;;;;;;;5068700;28;20550;-33
2022/06/02 12:26:47;;;;;;;4.03;1.63;;;;;;;;;;5070122;28;20308;-32
2022/06/02 12:29:38;;;;;;;2.05;1.90;;;;;;;;;;5066291;28;20384;-32
2022/06/02 12:32:10;;;;;;;1.50;1.40;;;;;;;;;;5062433;28;20028;-32
2022/06/02 12:34:51;;;;;;;1.58;1.48;;;;;;;;;;5068930;28;20032;-32
2022/06/02 12:37:37;;;;;;;2.50;1.52;;;;;;;;;;5060746;28;20047;-34
2022/06/02 12:40:21;;;;;;;2.75;1.55;;;;;;;;;;5060714;28;20090;-34
2022/06/02 12:42:55;;;;;;;1.58;1.48;;;;;;;;;;5068718;28;20059;-33
2022/06/02 12:45:31;;;;;;;1.85;1.30;;;;;;;;;;5058976;28;20159;-34
2022/06/02 12:48:18;;;;;;;2.45;1.40;;;;;;;;;;5067223;28;20045;-33
2022/06/02 12:50:45;;;;;;;1.50;1.40;;;;;;;;;;5067878;28;20432;-32
2022/06/02 12:53:33;;;;;;;1.30;1.20;;;;;;;;;;5068492;28;20037;-35
2022/06/02 12:56:17;;;;;;;1.50;1.15;;;;;;;;;;5039811;28;20068;-33
2022/06/02 12:58:44;;;;;;;1.48;1.30;;;;;;;;;;5071675;28;20036;-33
2022/06/02 13:01:23;;;;;;;1.98;1.33;;;;;;;;;;5072244;28;20044;-34
2022/06/02 13:03:49;;;;;;;1.20;1.10;;;;;;;;;;5068129;28;20050;-35
2022/06/02 13:06:30;;;;;;;1.48;1.38;;;;;;;;;;5070193;28;20041;-35
2022/06/02 13:08:57;;;;;;;1.33;1.23;;;;;;;;;;5060959;28;20084;-34
2022/06/02 13:11:29;;;;;;;1.30;1.20;;;;;;;;;;5077250;28;20382;-35
2022/06/02 13:14:05;;;;;;;2.05;1.05;;;;;;;;;;5071465;28;20043;-34
2022/06/02 13:16:53;;;;;;;2.30;1.35;;;;;;;;;;5072932;28;20494;-36
2022/06/02 13:19:19;;;;;;;1.25;0.90;;;;;;;;;;5071080;28;20376;-33
2022/06/02 13:22:00;;;;;;;1.40;1.20;;;;;;;;;;5077651;28;20505;-33
2022/06/02 13:24:44;;;;;;;1.38;1.00;;;;;;;;;;5078117;28;20037;-32
2022/06/02 13:27:11;;;;;;;1.60;0.95;;;;;;;;;;5063718;28;20441;-33
2022/06/02 13:29:55;;;;;;;2.15;1.25;;;;;;;;;;5073382;28;20045;-33
2022/06/02 13:32:31;;;;;;;1.48;1.33;;;;;;;;;;5068485;28;20102;-35
2022/06/02 13:35:16;;;;;;;1.33;1.17;;;;;;;;;;5065602;28;20044;-35
2022/06/02 13:37:59;;;;;;;1.80;1.25;;;;;;;;;;5053545;28;20043;-34
2022/06/02 13:40:34;;;;;;;1.02;1.02;;;;;;;;;;5071351;28;20376;-33
2022/06/02 13:43:00;;;;;;;1.27;1.05;;;;;;;;;;5066774;28;20036;-34
2022/06/02 13:45:45;;;;;;;1.10;1.00;;;;;;;;;;5067884;28;20083;-31
2022/06/02 13:48:12;;;;;;;1.55;1.20;;;;;;;;;;5072899;28;20056;-33
2022/06/02 13:51:01;;;;;;;1.02;0.93;;;;;;;;;;5054930;28;20089;-32
2022/06/02 13:57:30;;;;;;;0.95;0.90;;;;;;;;;;5072071;28;20048;-32
2022/06/02 13:59:46;;;;;;;2.20;1.27;;;;;;;;;;5062783;28;20076;-31
2022/06/02 14:02:31;;;;;;;1.23;1.02;;;;;;;;;;5069115;28;20089;-34
2022/06/02 14:05:20;;;;;;;2.67;1.08;;;;;;;;;;5062658;28;20072;-32
2022/06/02 14:07:47;;;;;;;1.40;1.10;;;;;;;;;;5054166;28;20036;-30
2022/06/02 14:10:19;;;;;;;1.35;0.95;;;;;;;;;;5072717;28;20043;-31
2022/06/02 14:12:52;;;;;;;0.85;0.85;;;;;;;;;;5072355;28;20041;-31
2022/06/02 14:15:21;;;;;;;0.98;0.90;;;;;;;;;;5072199;28;20609;-31
2022/06/02 14:18:02;;;;;;;1.77;1.10;;;;;;;;;;5071485;28;20056;-31
2022/06/02 14:20:32;;;;;;;1.27;0.80;;;;;;;;;;5071930;28;20512;-31
2022/06/02 14:23:04;;;;;;;1.23;0.82;;;;;;;;;;5067734;28;20055;-32
2022/06/02 14:25:31;;;;;;;0.70;0.70;;;;;;;;;;5051927;28;20136;-31
2022/06/02 14:28:15;;;;;;;0.98;0.77;;;;;;;;;;5051594;28;20053;-31
2022/06/02 14:30:44;;;;;;;0.90;0.80;;;;;;;;;;5051539;28;20422;-31
2022/06/02 14:33:10;;;;;;;1.52;0.95;;;;;;;;;;5050891;28;20045;-31
2022/06/02 14:35:46;;;;;;;1.05;0.82;;;;;;;;;;5050585;28;20051;-31
2022/06/02 14:38:35;;;;;;;1.95;1.00;;;;;;;;;;5051622;28;20041;-31
2022/06/02 14:41:01;;;;;;;1.52;0.80;;;;;;;;;;5051774;28;20119;-30
2022/06/02 14:43:34;;;;;;;1.17;0.82;;;;;;;;;;5051767;28;20052;-31
2022/06/02 14:46:17;;;;;;;1.02;0.95;;;;;;;;;;5051708;28;20045;-30
2022/06/02 14:48:50;;;;;;;1.38;1.00;;;;;;;;;;5051775;28;20119;-30
2022/06/02 14:51:18;;;;;;;2.00;0.90;;;;;;;;;;5051488;28;20045;-30
2022/06/02 14:53:49;;;;;;;2.25;1.00;;;;;;;;;;5051283;28;20048;-31
2022/06/02 14:56:21;;;;;;;1.23;0.80;;;;;;;;;;5051481;28;20376;-31
2022/06/02 14:59:12;;;;;;;1.00;0.90;;;;;;;;;;5051146;28;20077;-31
2022/06/02 15:01:44;;;;;;;1.08;1.00;;;;;;;;;;5065339;28;20048;-31
2022/06/02 15:04:22;;;;;;;1.48;1.05;;;;;;;;;;5074867;28;20105;-30
2022/06/02 15:07:12;;;;;;;1.35;0.93;;;;;;;;;;5071682;28;20211;-31
2022/06/02 15:09:38;;;;;;;1.60;1.05;;;;;;;;;;5071526;28;20102;-32
2022/06/02 15:12:07;;;;;;;1.35;1.00;;;;;;;;;;5070925;28;20044;-32
2022/06/02 15:14:52;;;;;;;1.20;1.10;;;;;;;;;;5071111;28;20515;-32
2022/06/02 15:17:26;;;;;;;1.20;1.10;;;;;;;;;;5071430;28;20048;-31
2022/06/02 15:20:10;;;;;;;1.25;1.13;;;;;;;;;;5071096;28;20043;-31
2022/06/02 15:22:39;;;;;;;2.00;1.10;;;;;;;;;;5071225;28;20046;-32
2022/06/02 15:25:21;;;;;;;1.10;1.00;;;;;;;;;;5068973;28;20037;-31
2022/06/02 15:27:53;;;;;;;2.70;1.17;;;;;;;;;;5051152;28;20045;-33
2022/06/02 15:30:38;;;;;;;1.10;1.07;;;;;;;;;;5049829;28;20130;-31
2022/06/02 15:33:07;;;;;;;2.03;1.00;;;;;;;;;;5049812;28;20482;-31
2022/06/02 15:35:39;;;;;;;1.70;1.30;;;;;;;;;;5075156;28;20044;-32
2022/06/02 15:38:11;;;;;;;1.38;1.27;;;;;;;;;;5069475;28;20085;-34
2022/06/02 15:40:43;;;;;;;1.27;1.17;;;;;;;;;;5063588;28;20040;-34
2022/06/02 15:43:09;;;;;;;2.93;1.37;;;;;;;;;;5067379;28;20040;-33
2022/06/02 15:45:59;;;;;;;1.00;1.00;;;;;;;;;;5058385;28;20633;-32